Time;durP1;ratioP1;P1;durP2;ratioP2;P2;SDS_P1;SDS_P2;PMS_P1;PMS_P2;Temp;Humidity;BMP_temperature;BMP_pressure;BME280_temperature;BME280_humidity;BME280_pressure;Samples;Min_cycle;Max_cycle;Signal;HPM_P1;HPM_P2
2021/05/07 00:00:29;;;;;;;1.60;1.50;;;;;;;11.28;65.68;93272.44;5089043;28;20038;-44
2021/05/07 00:02:55;;;;;;;0.70;0.70;;;;;;;11.17;65.66;93278.38;5087483;28;20023;-46
2021/05/07 00:05:20;;;;;;;1.30;0.80;;;;;;;11.17;66.70;93281.16;5088362;28;20028;-43
2021/05/07 00:07:46;;;;;;;0.70;0.70;;;;;;;11.06;66.55;93283.56;5088755;28;20020;-45
2021/05/07 00:10:15;;;;;;;2.33;1.20;;;;;;;11.11;65.65;93275.06;5088550;28;20028;-44
2021/05/07 00:12:41;;;;;;;0.80;0.77;;;;;;;11.25;65.90;93283.88;5088573;28;20152;-46
2021/05/07 00:15:08;;;;;;;2.65;1.20;;;;;;;11.21;65.95;93286.28;5088978;28;20019;-46
2021/05/07 00:17:33;;;;;;;1.33;1.13;;;;;;;11.18;66.46;93279.09;5089776;28;20020;-46
2021/05/07 00:19:58;;;;;;;1.33;1.23;;;;;;;11.04;66.79;93280.63;5093147;28;20016;-44
2021/05/07 00:22:24;;;;;;;2.25;1.00;;;;;;;10.95;67.87;93279.16;5103056;28;20023;-44
2021/05/07 00:24:49;;;;;;;1.38;1.27;;;;;;;10.95;67.32;93272.91;5101579;28;20024;-45
2021/05/07 00:27:17;;;;;;;1.30;1.23;;;;;;;10.87;67.53;93272.91;5098995;28;20023;-45
2021/05/07 00:29:43;;;;;;;1.45;0.98;;;;;;;10.93;67.69;93269.97;5098646;28;20072;-45
2021/05/07 00:32:09;;;;;;;1.20;1.10;;;;;;;10.76;67.46;93272.56;5100181;28;20033;-42
2021/05/07 00:34:34;;;;;;;1.58;1.48;;;;;;;10.59;69.04;93265.56;5100431;28;20011;-43
2021/05/07 00:37:00;;;;;;;2.72;1.98;;;;;;;10.63;69.59;93265.22;5098461;28;20012;-42
2021/05/07 00:39:25;;;;;;;1.75;1.05;;;;;;;10.82;68.26;93264.81;5096434;28;20028;-42
2021/05/07 00:41:51;;;;;;;1.58;1.20;;;;;;;10.73;68.22;93262.63;5090308;28;20028;-45
2021/05/07 00:44:16;;;;;;;0.90;0.75;;;;;;;10.79;68.42;93266.66;5102453;28;20088;-44
2021/05/07 00:46:43;;;;;;;1.67;1.58;;;;;;;10.88;68.19;93257.81;5110455;28;20016;-45
2021/05/07 00:49:09;;;;;;;1.17;0.90;;;;;;;10.81;68.17;93261.31;5110359;28;20019;-43
2021/05/07 00:51:35;;;;;;;1.25;1.15;;;;;;;10.88;68.29;93257.81;5092209;28;20505;-45
2021/05/07 00:54:00;;;;;;;1.88;1.30;;;;;;;10.58;69.03;93261.34;5089617;28;20024;-44
2021/05/07 00:56:26;;;;;;;1.38;1.08;;;;;;;10.27;69.41;93261.91;5092080;28;20552;-44
2021/05/07 00:58:52;;;;;;;2.60;1.63;;;;;;;10.40;69.68;93259.69;5090350;28;20023;-43
2021/05/07 01:01:17;;;;;;;1.35;1.05;;;;;;;10.53;68.75;93259.50;5104398;28;20027;-43
2021/05/07 01:03:43;;;;;;;1.27;0.98;;;;;;;10.61;68.19;93254.72;5096595;28;20019;-43
2021/05/07 01:06:08;;;;;;;1.00;0.88;;;;;;;10.68;67.50;93262.25;5109787;28;20027;-42
2021/05/07 01:08:35;;;;;;;0.80;0.80;;;;;;;10.20;68.89;93230.25;5095062;28;20130;-43
2021/05/07 01:11:00;;;;;;;1.02;0.80;;;;;;;10.41;69.58;93249.41;5106162;28;20028;-43
2021/05/07 01:13:26;;;;;;;1.30;1.20;;;;;;;10.30;69.90;93255.28;5093031;28;20015;-47
2021/05/07 01:15:51;;;;;;;1.35;1.33;;;;;;;10.16;69.87;93265.75;5100776;28;20033;-45
2021/05/07 01:18:17;;;;;;;1.80;1.67;;;;;;;10.06;70.19;93270.31;5100196;28;20027;-46
2021/05/07 01:20:42;;;;;;;1.33;1.10;;;;;;;10.18;70.19;93265.94;5096795;28;20043;-44
2021/05/07 01:23:09;;;;;;;1.63;1.52;;;;;;;9.92;70.47;93269.00;5094255;28;20492;-46
2021/05/07 01:25:37;;;;;;;1.15;1.05;;;;;;;9.81;71.08;93272.13;5102081;28;20028;-43
2021/05/07 01:28:07;;;;;;;1.65;0.90;;;;;;;10.11;70.42;93271.47;5099085;28;20028;-44
2021/05/07 01:30:43;;;;;;;0.77;0.77;;;;;;;10.19;70.50;93270.19;5103034;28;20040;-44
2021/05/07 01:33:11;;;;;;;1.33;1.23;;;;;;;10.25;70.07;93273.50;5092707;28;20020;-42
2021/05/07 01:35:37;;;;;;;1.13;1.02;;;;;;;10.31;69.69;93257.47;5102900;28;20055;-43
2021/05/07 01:38:10;;;;;;;1.38;1.27;;;;;;;10.36;69.31;93258.59;5098817;28;20020;-44
2021/05/07 01:40:38;;;;;;;1.55;1.00;;;;;;;10.36;69.61;93259.34;5107679;28;20019;-43
2021/05/07 01:43:04;;;;;;;5.35;1.17;;;;;;;10.31;68.86;93245.72;5093610;28;20416;-43
2021/05/07 01:45:32;;;;;;;1.95;1.10;;;;;;;10.48;69.17;93263.19;5103595;28;20020;-44
2021/05/07 01:47:58;;;;;;;2.25;1.00;;;;;;;10.49;68.52;93259.16;5099820;28;20023;-43
2021/05/07 01:50:26;;;;;;;1.60;1.40;;;;;;;10.53;68.56;93250.50;5095291;28;20586;-44
2021/05/07 01:52:52;;;;;;;2.08;1.60;;;;;;;10.36;69.37;93259.34;5104472;28;20099;-44
2021/05/07 01:55:23;;;;;;;2.22;1.30;;;;;;;10.14;69.44;93262.81;5105144;28;20031;-45
2021/05/07 01:57:48;;;;;;;1.15;1.02;;;;;;;10.11;69.40;93254.91;5097237;28;20024;-46
2021/05/07 02:00:19;;;;;;;2.80;1.85;;;;;;;9.90;69.92;93255.03;5105241;28;20030;-45
2021/05/07 02:02:45;;;;;;;3.50;1.30;;;;;;;9.87;70.08;93253.38;5092987;28;20035;-44
2021/05/07 02:05:12;;;;;;;2.53;1.42;;;;;;;9.77;71.27;93255.19;5105374;28;20028;-44
2021/05/07 02:07:37;;;;;;;1.48;1.38;;;;;;;9.79;71.07;93252.59;5095775;28;20015;-43
2021/05/07 02:10:09;;;;;;;1.65;1.35;;;;;;;9.81;71.42;93255.59;5101551;28;20020;-45
2021/05/07 02:12:35;;;;;;;1.83;1.65;;;;;;;9.59;71.22;93253.50;5107403;28;20134;-45
2021/05/07 02:15:01;;;;;;;1.27;1.00;;;;;;;9.48;70.98;93234.53;5095725;28;20540;-44
2021/05/07 02:17:26;;;;;;;0.90;0.90;;;;;;;9.42;71.77;93239.47;5107939;28;20019;-48
2021/05/07 02:19:52;;;;;;;0.95;0.90;;;;;;;9.33;72.02;93240.75;5098509;28;20053;-43
2021/05/07 02:22:17;;;;;;;1.02;1.00;;;;;;;9.53;71.76;93242.63;5104805;28;20020;-44
2021/05/07 02:24:43;;;;;;;1.98;1.27;;;;;;;9.64;71.18;93242.28;5096676;28;20484;-41
2021/05/07 02:27:08;;;;;;;2.28;0.88;;;;;;;9.74;71.16;93231.47;5109279;28;20484;-45
2021/05/07 02:29:34;;;;;;;1.80;1.65;;;;;;;9.63;71.44;93231.81;5097970;28;20040;-44
2021/05/07 02:31:59;;;;;;;1.10;1.02;;;;;;;9.39;71.81;93241.31;5112294;28;20484;-45
2021/05/07 02:34:24;;;;;;;2.15;1.63;;;;;;;9.14;72.15;93238.25;5112342;27;20023;-47
2021/05/07 02:36:50;;;;;;;2.92;1.70;;;;;;;9.13;71.72;93239.56;5098892;27;20401;-45
2021/05/07 02:39:16;;;;;;;0.90;0.90;;;;;;;9.10;72.41;93243.38;5095645;28;20020;-44
2021/05/07 02:41:43;;;;;;;1.08;0.98;;;;;;;9.26;71.58;93241.44;5105032;28;20515;-43
2021/05/07 02:44:08;;;;;;;2.60;0.98;;;;;;;9.29;71.52;93245.13;5102966;28;20024;-42
2021/05/07 02:46:34;;;;;;;1.38;1.27;;;;;;;9.22;72.17;93243.81;5097547;28;20028;-43
2021/05/07 02:49:04;;;;;;;1.42;0.95;;;;;;;9.26;71.81;93246.22;5108680;28;20035;-43
2021/05/07 02:51:30;;;;;;;1.38;1.27;;;;;;;8.95;72.47;93226.81;5097453;28;20106;-41
2021/05/07 02:53:56;;;;;;;2.35;1.20;;;;;;;8.74;73.47;93239.91;5102762;28;20535;-44
2021/05/07 02:56:22;;;;;;;1.05;0.98;;;;;;;9.00;73.52;93258.22;5104672;28;20024;-46
2021/05/07 02:58:47;;;;;;;1.23;1.13;;;;;;;9.10;73.44;93267.44;5095880;28;20390;-43
2021/05/07 03:01:13;;;;;;;1.27;1.17;;;;;;;9.12;72.90;93273.88;5107195;28;20023;-42
2021/05/07 03:03:38;;;;;;;2.05;1.42;;;;;;;9.09;71.72;93261.22;5098153;28;20088;-46
2021/05/07 03:06:04;;;;;;;2.92;2.13;;;;;;;9.10;71.76;93257.16;5101319;28;20039;-44
2021/05/07 03:08:29;;;;;;;1.38;1.00;;;;;;;9.09;72.33;93255.69;5105502;28;20060;-43
2021/05/07 03:10:55;;;;;;;1.88;1.23;;;;;;;9.07;72.68;93263.03;5095019;28;20490;-42
2021/05/07 03:13:20;;;;;;;1.50;1.25;;;;;;;8.98;73.24;93261.53;5107484;28;20008;-42
2021/05/07 03:15:46;;;;;;;0.82;0.82;;;;;;;8.97;71.79;93265.53;5099039;28;20007;-44
2021/05/07 03:18:19;;;;;;;1.85;1.45;;;;;;;8.94;70.94;93258.34;5100011;28;20023;-43
2021/05/07 03:20:45;;;;;;;3.05;1.17;;;;;;;9.04;71.45;93273.13;5093971;28;20154;-44
2021/05/07 03:23:11;;;;;;;2.95;1.40;;;;;;;9.02;72.27;93277.69;5107572;28;20111;-43
2021/05/07 03:25:37;;;;;;;1.48;1.38;;;;;;;9.10;72.39;93278.44;5096921;28;20047;-44
2021/05/07 03:28:03;;;;;;;1.08;1.08;;;;;;;8.89;72.50;93261.28;5101270;28;20047;-42
2021/05/07 03:30:29;;;;;;;1.73;1.25;;;;;;;8.79;74.00;93280.28;5104467;28;20069;-44
2021/05/07 03:32:57;;;;;;;1.38;1.02;;;;;;;8.93;73.41;93289.94;5104715;28;20031;-45
2021/05/07 03:35:23;;;;;;;3.25;2.00;;;;;;;8.88;73.55;93290.81;5095328;28;20511;-43
2021/05/07 03:37:48;;;;;;;2.03;0.93;;;;;;;8.93;73.39;93294.69;5110989;28;20020;-46
2021/05/07 03:40:14;;;;;;;1.60;1.45;;;;;;;8.82;73.28;93290.22;5099126;28;20031;-44
2021/05/07 03:42:39;;;;;;;1.10;1.10;;;;;;;8.72;74.28;93300.25;5105314;28;20043;-45
2021/05/07 03:45:05;;;;;;;1.80;1.27;;;;;;;8.76;74.41;93297.16;5094027;28;20031;-42
2021/05/07 03:47:31;;;;;;;1.08;0.98;;;;;;;8.87;74.63;93308.63;5111211;28;20019;-46
2021/05/07 03:49:56;;;;;;;0.90;0.90;;;;;;;9.00;73.60;93303.00;5101842;28;20016;-43
2021/05/07 03:52:22;;;;;;;1.65;1.55;;;;;;;9.03;73.27;93320.47;5103712;28;20024;-44
2021/05/07 03:54:47;;;;;;;2.67;1.00;;;;;;;9.17;72.22;93316.31;5094277;28;20020;-46
2021/05/07 03:57:13;;;;;;;1.55;1.45;;;;;;;9.24;71.60;93310.13;5107283;28;20041;-43
2021/05/07 03:59:38;;;;;;;1.00;1.00;;;;;;;9.34;71.13;93307.59;5097271;28;20011;-43
2021/05/07 04:02:04;;;;;;;1.63;1.52;;;;;;;9.36;71.76;93310.53;5100130;28;20108;-45
2021/05/07 04:04:31;;;;;;;1.50;1.40;;;;;;;9.36;71.51;93316.03;5104486;28;20114;-46
2021/05/07 04:06:56;;;;;;;1.63;1.52;;;;;;;9.56;71.48;93312.47;5094131;28;20024;-43
2021/05/07 04:09:35;;;;;;;12.73;2.45;;;;;;;9.74;70.30;93317.69;5106507;28;20019;-44
2021/05/07 04:12:13;;;;;;;25.02;9.23;;;;;;;9.68;71.14;93316.38;5090150;28;20042;-43
2021/05/07 04:14:38;;;;;;;10.20;4.72;;;;;;;9.69;71.58;93310.31;5090332;28;20157;-43
2021/05/07 04:17:04;;;;;;;5.65;3.55;;;;;;;9.75;71.66;93288.06;5090045;28;20061;-43
2021/05/07 04:19:29;;;;;;;6.75;3.13;;;;;;;9.95;71.66;93298.25;5101571;28;20038;-43
2021/05/07 04:21:55;;;;;;;2.95;1.58;;;;;;;10.32;70.86;93308.63;5110016;28;20500;-44
2021/05/07 04:24:20;;;;;;;2.30;2.10;;;;;;;10.76;69.11;93311.97;5104253;28;20427;-46
2021/05/07 04:26:46;;;;;;;2.13;1.77;;;;;;;11.16;67.99;93312.81;5106276;28;20082;-46
2021/05/07 04:29:14;;;;;;;2.35;1.73;;;;;;;11.12;67.98;93306.94;5099508;28;20048;-45
2021/05/07 04:31:40;;;;;;;2.22;1.88;;;;;;;11.99;66.84;93320.13;5102904;27;20039;-45
2021/05/07 04:34:06;;;;;;;3.75;1.98;;;;;;;12.31;64.53;93333.97;5093947;28;20028;-45
2021/05/07 04:36:32;;;;;;;5.32;1.73;;;;;;;12.55;63.82;93329.75;5103996;28;20408;-43
2021/05/07 04:38:58;;;;;;;4.50;2.17;;;;;;;12.86;63.65;93325.47;5093438;28;20054;-44
2021/05/07 04:41:24;;;;;;;2.05;1.77;;;;;;;12.90;62.20;93336.88;5105394;28;20075;-45
2021/05/07 04:43:50;;;;;;;1.67;1.50;;;;;;;13.24;61.52;93322.38;5098185;28;20028;-43
2021/05/07 04:46:15;;;;;;;1.65;1.52;;;;;;;13.78;61.02;93334.38;5098109;28;20488;-43
2021/05/07 04:48:41;;;;;;;3.10;2.28;;;;;;;14.11;59.93;93330.81;5105233;28;20015;-43
2021/05/07 04:51:06;;;;;;;2.47;1.60;;;;;;;14.32;58.97;93327.59;5093151;28;20077;-45
2021/05/07 04:53:32;;;;;;;2.20;1.73;;;;;;;14.29;57.76;93332.25;5104282;28;20016;-43
2021/05/07 04:55:57;;;;;;;4.00;1.92;;;;;;;14.34;58.75;93324.97;5098993;28;20019;-44
2021/05/07 04:58:22;;;;;;;3.63;2.08;;;;;;;14.53;59.19;93330.63;5096944;28;20024;-47
2021/05/07 05:00:48;;;;;;;3.67;2.03;;;;;;;14.73;59.17;93332.19;5102450;28;20669;-45
2021/05/07 05:03:14;;;;;;;3.33;1.85;;;;;;;14.96;57.49;93334.63;5109365;28;20031;-43
2021/05/07 05:05:39;;;;;;;4.40;1.95;;;;;;;15.26;57.03;93336.19;5108978;28;20050;-44
2021/05/07 05:08:05;;;;;;;2.97;2.15;;;;;;;15.56;55.25;93338.44;5099009;28;20028;-46
2021/05/07 05:10:30;;;;;;;4.35;2.40;;;;;;;15.92;54.28;93324.38;5103512;28;20032;-47
2021/05/07 05:12:56;;;;;;;1.65;1.50;;;;;;;16.12;53.42;93320.28;5092614;28;20039;-49
2021/05/07 05:15:22;;;;;;;3.38;1.95;;;;;;;16.34;53.13;93327.44;5105147;28;20055;-45
2021/05/07 05:17:48;;;;;;;4.22;2.05;;;;;;;16.04;53.61;93330.09;5097520;28;20026;-47
2021/05/07 05:20:14;;;;;;;3.05;1.92;;;;;;;16.40;53.59;93335.47;5096407;28;20035;-48
2021/05/07 05:22:39;;;;;;;3.17;2.20;;;;;;;16.28;53.49;93326.28;5089372;28;20032;-48
2021/05/07 05:25:06;;;;;;;3.03;1.75;;;;;;;16.05;55.04;93323.94;5102792;28;20027;-43
2021/05/07 05:27:32;;;;;;;2.22;1.58;;;;;;;16.71;53.96;93324.44;5094909;28;20028;-44
2021/05/07 05:29:58;;;;;;;3.92;1.73;;;;;;;17.11;51.00;93324.41;5109349;28;20044;-47
2021/05/07 05:32:24;;;;;;;1.58;1.45;;;;;;;17.70;49.29;93323.50;5096289;28;20425;-48
2021/05/07 05:34:49;;;;;;;1.63;1.40;;;;;;;18.41;49.18;93328.78;5105977;28;20031;-48
2021/05/07 05:37:14;;;;;;;1.00;0.88;;;;;;;18.97;47.31;93323.19;5089281;28;20020;-44
2021/05/07 05:39:40;;;;;;;4.10;1.88;;;;;;;19.35;46.35;93326.28;5089088;28;20386;-44
2021/05/07 05:42:05;;;;;;;2.03;1.55;;;;;;;19.57;45.99;93326.84;5088781;28;20089;-41
2021/05/07 05:44:31;;;;;;;4.80;1.58;;;;;;;19.90;45.66;93321.06;5090861;28;20032;-47
2021/05/07 05:46:56;;;;;;;1.48;1.17;;;;;;;20.26;44.13;93321.09;5093343;28;20024;-46
2021/05/07 05:49:22;;;;;;;1.27;1.17;;;;;;;20.01;42.04;93317.50;5097642;28;20030;-44
2021/05/07 05:51:47;;;;;;;1.60;1.25;;;;;;;19.88;43.96;93310.44;5105754;28;20043;-43
2021/05/07 05:54:12;;;;;;;1.00;0.95;;;;;;;19.98;45.29;93297.03;5103964;28;20031;-45
2021/05/07 05:56:39;;;;;;;1.10;0.75;;;;;;;20.11;43.67;93315.25;5098102;28;20031;-46
2021/05/07 05:59:04;;;;;;;0.93;0.70;;;;;;;20.07;42.33;93312.97;5109469;28;20035;-48
2021/05/07 06:01:30;;;;;;;4.22;1.58;;;;;;;19.76;44.24;93312.56;5092888;28;20039;-49
2021/05/07 06:03:56;;;;;;;0.77;0.77;;;;;;;19.59;42.99;93310.91;5101804;28;20031;-48
2021/05/07 06:06:22;;;;;;;1.15;0.82;;;;;;;19.72;42.79;93306.72;5099567;28;20032;-47
2021/05/07 06:08:47;;;;;;;2.15;1.20;;;;;;;19.43;42.30;93312.75;5109047;28;20463;-49
2021/05/07 06:11:13;;;;;;;1.08;1.00;;;;;;;19.13;44.77;93305.31;5095718;28;20537;-48
2021/05/07 06:13:38;;;;;;;0.95;0.95;;;;;;;19.48;43.08;93314.44;5106051;27;20020;-47
2021/05/07 06:16:04;;;;;;;1.85;0.90;;;;;;;19.96;42.06;93316.53;5092377;28;20035;-49
2021/05/07 06:18:29;;;;;;;1.75;1.35;;;;;;;20.20;41.42;93289.16;5103080;28;20020;-48
2021/05/07 06:20:55;;;;;;;1.52;1.17;;;;;;;20.74;40.98;93320.22;5096797;28;20081;-46
2021/05/07 06:23:22;;;;;;;2.42;0.88;;;;;;;20.83;39.85;93322.13;5112304;28;20072;-47
2021/05/07 06:25:48;;;;;;;1.27;0.93;;;;;;;21.05;39.56;93312.09;5102801;28;20418;-47
2021/05/07 06:28:13;;;;;;;2.85;1.70;;;;;;;21.55;39.33;93322.44;5100879;28;20024;-49
2021/05/07 06:30:38;;;;;;;1.75;1.23;;;;;;;21.85;39.20;93318.38;5091791;28;20587;-46
2021/05/07 06:33:04;;;;;;;0.65;0.65;;;;;;;21.96;36.88;93318.91;5092145;28;20028;-48
2021/05/07 06:35:29;;;;;;;0.80;0.80;;;;;;;22.36;35.73;93321.63;5092153;28;20126;-45
2021/05/07 06:37:57;;;;;;;0.90;0.80;;;;;;;22.80;35.68;93319.50;5100905;28;20035;-48
2021/05/07 06:40:22;;;;;;;2.38;1.13;;;;;;;22.99;35.22;93308.44;5099102;28;20032;-46
2021/05/07 06:42:48;;;;;;;1.30;0.90;;;;;;;22.54;34.55;93290.81;5091978;28;20042;-48
2021/05/07 06:45:16;;;;;;;1.75;0.98;;;;;;;22.19;34.88;93299.69;5091460;28;20032;-46
2021/05/07 06:47:42;;;;;;;2.40;0.90;;;;;;;22.05;36.39;93298.25;5096980;28;20027;-46
2021/05/07 06:50:09;;;;;;;1.20;0.68;;;;;;;22.01;36.52;93298.78;5092533;28;20680;-45
2021/05/07 06:52:34;;;;;;;1.23;0.93;;;;;;;22.09;35.98;93285.13;5091776;28;20683;-45
2021/05/07 06:55:00;;;;;;;1.17;1.08;;;;;;;22.69;34.82;93297.84;5108134;28;20031;-45
2021/05/07 06:57:26;;;;;;;2.30;1.35;;;;;;;22.34;35.15;93307.47;5109369;28;20023;-46
2021/05/07 06:59:52;;;;;;;0.90;0.90;;;;;;;22.47;34.88;93303.88;5111582;28;20078;-47
2021/05/07 07:02:18;;;;;;;1.25;0.75;;;;;;;22.58;35.62;93303.00;5098178;28;20408;-47
2021/05/07 07:04:47;;;;;;;1.33;0.90;;;;;;;22.51;34.71;93287.19;5100358;27;20020;-48
2021/05/07 07:07:14;;;;;;;1.38;0.90;;;;;;;22.85;35.11;93293.00;5100825;28;20075;-46
2021/05/07 07:09:40;;;;;;;2.05;1.15;;;;;;;23.37;33.48;93283.41;5102617;28;20666;-45
2021/05/07 07:12:06;;;;;;;0.63;0.63;;;;;;;23.89;31.74;93282.81;5100732;28;20079;-45
2021/05/07 07:14:36;;;;;;;0.88;0.80;;;;;;;24.66;31.61;93278.22;5101405;28;20066;-45
2021/05/07 07:17:02;;;;;;;0.73;0.73;;;;;;;25.36;30.37;93280.91;5100617;28;20024;-45
2021/05/07 07:19:27;;;;;;;1.10;0.90;;;;;;;24.61;31.53;93273.78;5102488;28;20043;-43
2021/05/07 07:21:53;;;;;;;1.50;1.13;;;;;;;24.69;30.57;93279.75;5104013;28;20051;-45
2021/05/07 07:24:18;;;;;;;2.30;1.20;;;;;;;25.49;29.36;93268.72;5101965;28;20028;-46
2021/05/07 07:26:44;;;;;;;4.22;1.23;;;;;;;26.08;28.41;93279.22;5097742;28;20066;-44
2021/05/07 07:29:09;;;;;;;1.52;0.85;;;;;;;26.10;28.00;93276.50;5106529;28;20056;-45
2021/05/07 07:31:35;;;;;;;0.98;0.82;;;;;;;26.00;28.81;93282.53;5097265;28;20077;-44
2021/05/07 07:34:00;;;;;;;1.05;0.93;;;;;;;27.52;26.06;93279.56;5097183;28;20043;-46
2021/05/07 07:36:26;;;;;;;0.80;0.80;;;;;;;26.66;26.52;93274.81;5090846;28;20477;-46
2021/05/07 07:38:51;;;;;;;0.85;0.85;;;;;;;26.93;26.76;93285.59;5089934;28;20039;-46
2021/05/07 07:41:17;;;;;;;0.75;0.55;;;;;;;28.28;25.46;93286.63;5091094;28;20115;-46
2021/05/07 07:43:43;;;;;;;1.20;0.80;;;;;;;28.90;24.03;93278.94;5097689;28;20030;-45
2021/05/07 07:46:08;;;;;;;0.68;0.68;;;;;;;29.79;23.68;93287.31;5093156;28;20039;-44
2021/05/07 07:48:34;;;;;;;0.75;0.75;;;;;;;29.36;22.58;93271.47;5091404;28;20027;-45
2021/05/07 07:50:59;;;;;;;1.05;0.75;;;;;;;29.29;23.82;93272.00;5109976;28;20036;-48
2021/05/07 07:53:25;;;;;;;0.90;0.80;;;;;;;29.05;24.12;93272.91;5110967;28;20031;-51
2021/05/07 08:09:17;;;;;;;1.35;0.47;;;;;;;30.81;21.52;93237.16;5094212;28;20035;-54
2021/05/07 08:11:43;;;;;;;0.55;0.55;;;;;;;31.21;20.85;93237.03;5103514;28;20016;-50
2021/05/07 08:14:08;;;;;;;0.70;0.40;;;;;;;31.84;19.98;93235.72;5110232;28;20034;-51
2021/05/07 08:16:34;;;;;;;0.50;0.50;;;;;;;32.24;20.24;93230.47;5107318;28;20023;-51
2021/05/07 08:18:59;;;;;;;0.52;0.52;;;;;;;32.34;20.26;93236.25;5100381;28;20031;-51
2021/05/07 08:21:26;;;;;;;0.95;0.95;;;;;;;32.98;20.20;93224.66;5093500;28;20015;-53
2021/05/07 08:23:52;;;;;;;0.60;0.60;;;;;;;32.94;19.05;93229.63;5107814;28;20027;-54
2021/05/07 08:26:18;;;;;;;0.63;0.50;;;;;;;33.51;20.79;93223.59;5109375;28;20393;-51
2021/05/07 08:28:44;;;;;;;0.50;0.43;;;;;;;33.87;20.06;93216.56;5108749;28;20480;-52
2021/05/07 09:54:17;;;;;;;2.30;1.10;;;;;;;26.28;27.53;93172.38;5049982;28;20180;-51
2021/05/07 09:56:43;;;;;;;1.02;0.80;;;;;;;26.13;28.26;93147.84;5065534;28;20119;-52
2021/05/07 09:59:10;;;;;;;1.02;0.75;;;;;;;26.40;27.85;93163.56;5045626;28;20036;-50
2021/05/07 10:01:35;;;;;;;0.65;0.60;;;;;;;25.94;27.80;93157.13;5058003;28;20029;-49
2021/05/07 10:04:03;;;;;;;2.75;1.10;;;;;;;25.69;28.29;93160.50;5033313;28;20111;-51
2021/05/07 10:06:28;;;;;;;1.10;0.70;;;;;;;25.37;29.36;93168.59;5051341;28;20024;-52
2021/05/07 10:08:54;;;;;;;2.20;0.73;;;;;;;26.41;27.45;93151.56;5051328;28;20028;-54
2021/05/07 10:11:21;;;;;;;3.33;1.20;;;;;;;26.52;27.52;93149.75;5033803;28;20079;-51
2021/05/07 10:13:47;;;;;;;0.70;0.70;;;;;;;26.43;28.66;93142.41;5051535;28;20032;-47
2021/05/07 10:16:13;;;;;;;1.00;0.80;;;;;;;26.22;27.97;93141.06;5033811;28;20029;-52
2021/05/07 10:18:40;;;;;;;0.55;0.55;;;;;;;25.58;28.52;93131.19;5031888;28;20399;-52
2021/05/07 10:21:11;;;;;;;0.60;0.60;;;;;;;25.06;30.20;93137.84;5017881;28;20102;-50
2021/05/07 10:23:49;;;;;;;1.75;1.00;;;;;;;25.34;29.26;93133.88;5051156;28;20086;-50
2021/05/07 10:26:15;;;;;;;0.98;0.85;;;;;;;25.34;28.48;93133.88;5051823;28;20086;-51
2021/05/07 10:28:43;;;;;;;1.70;0.70;;;;;;;25.33;29.76;93145.84;5057213;28;20032;-50
2021/05/07 10:31:10;;;;;;;2.47;0.88;;;;;;;25.25;28.11;93134.97;5070800;28;20025;-49
2021/05/07 10:33:36;;;;;;;0.70;0.60;;;;;;;25.22;28.28;93129.94;5071119;28;20497;-51
2021/05/07 10:36:02;;;;;;;0.88;0.73;;;;;;;25.08;28.72;93135.78;5071277;28;20031;-51
2021/05/07 10:38:28;;;;;;;2.83;0.88;;;;;;;25.02;28.96;93140.50;5070920;28;20103;-52
2021/05/07 10:41:07;;;;;;;1.30;0.88;;;;;;;25.41;28.81;93138.38;5070948;28;20021;-51
2021/05/07 10:43:42;;;;;;;0.30;0.30;;;;;;;25.67;28.33;93137.81;5070947;28;20580;-49
2021/05/07 10:46:20;;;;;;;1.30;0.73;;;;;;;25.97;27.30;93136.72;5071097;28;20052;-48
2021/05/07 10:48:56;;;;;;;0.82;0.73;;;;;;;27.45;26.56;93136.88;5070770;28;20441;-52
2021/05/07 10:51:25;;;;;;;1.83;0.80;;;;;;;28.20;27.17;93139.50;5070857;28;20028;-52
2021/05/07 10:53:51;;;;;;;1.27;0.70;;;;;;;29.85;27.01;93128.03;5070362;28;20056;-52
2021/05/07 10:56:33;;;;;;;1.08;0.82;;;;;;;30.91;21.52;93131.84;5070718;28;20067;-53
2021/05/07 10:59:11;;;;;;;0.73;0.50;;;;;;;31.68;20.73;93118.50;5054326;28;20029;-53
2021/05/07 11:01:36;;;;;;;1.30;0.52;;;;;;;31.67;21.30;93117.06;5050156;28;20526;-52
2021/05/07 11:04:07;;;;;;;1.77;1.00;;;;;;;31.05;20.26;93106.38;5060596;28;20029;-51
2021/05/07 11:06:38;;;;;;;6.40;2.58;;;;;;;30.52;21.60;93104.91;5051181;28;20107;-47
2021/05/07 11:09:19;;;;;;;0.63;0.50;;;;;;;29.76;21.57;93097.97;5051536;28;20477;-50
2021/05/07 11:11:46;;;;;;;1.52;0.65;;;;;;;28.68;23.38;93090.88;5062891;28;20032;-47
2021/05/07 11:14:17;;;;;;;1.23;0.82;;;;;;;28.05;22.73;93086.63;5051982;28;20039;-49
2021/05/07 11:16:44;;;;;;;4.53;2.67;;;;;;;27.62;23.68;93089.81;5070901;28;20017;-51
2021/05/07 11:19:31;;;;;;;1.17;0.50;;;;;;;27.92;24.27;93082.03;5050697;28;20021;-50
2021/05/07 11:22:03;;;;;;;0.80;0.80;;;;;;;29.12;23.38;93080.41;5049060;28;20029;-48
2021/05/07 11:24:40;;;;;;;1.85;0.77;;;;;;;29.84;23.52;93075.38;5048470;28;20017;-52
2021/05/07 11:27:26;;;;;;;1.40;1.30;;;;;;;29.70;22.59;93075.81;5049617;28;20059;-51
2021/05/07 11:30:04;;;;;;;0.45;0.45;;;;;;;28.59;22.95;93072.94;5047878;28;20032;-50
2021/05/07 11:32:30;;;;;;;1.20;0.50;;;;;;;27.87;24.08;93071.28;5048640;28;20021;-46
2021/05/07 11:34:57;;;;;;;1.95;0.98;;;;;;;26.94;25.50;93071.72;5048133;28;20036;-49
2021/05/07 11:37:24;;;;;;;0.50;0.50;;;;;;;26.94;25.51;93060.38;5049187;28;20025;-45
2021/05/07 11:40:00;;;;;;;6.60;0.82;;;;;;;27.27;26.37;93059.81;5062570;28;20024;-47
2021/05/07 11:42:29;;;;;;;0.70;0.60;;;;;;;27.08;25.19;93048.69;5067498;28;20580;-47
2021/05/07 11:44:54;;;;;;;1.13;0.73;;;;;;;27.21;25.84;93053.28;5069669;28;20024;-46
2021/05/07 11:47:20;;;;;;;2.75;1.10;;;;;;;27.58;26.69;93050.00;5070176;28;20112;-48
2021/05/07 11:49:49;;;;;;;0.82;0.75;;;;;;;28.30;26.41;93034.69;5052147;28;20025;-46
2021/05/07 11:52:15;;;;;;;2.83;1.00;;;;;;;28.52;25.54;93032.31;5050312;28;20068;-46
2021/05/07 11:54:45;;;;;;;0.93;0.90;;;;;;;28.65;25.45;93033.31;5062014;28;20114;-50
2021/05/07 11:57:12;;;;;;;0.73;0.70;;;;;;;28.24;24.49;93037.38;5070196;28;20028;-47
2021/05/07 11:59:48;;;;;;;1.50;1.20;;;;;;;28.41;27.11;93035.63;5070233;28;20043;-46
2021/05/07 12:02:21;;;;;;;0.50;0.50;;;;;;;28.69;24.95;93024.16;5070476;28;20020;-52
2021/05/07 12:04:47;;;;;;;1.20;0.63;;;;;;;28.48;24.99;93028.66;5070193;28;20088;-49
2021/05/07 12:07:21;;;;;;;3.25;0.90;;;;;;;27.67;23.79;93028.97;5070293;28;20017;-46
2021/05/07 12:09:47;;;;;;;0.70;0.70;;;;;;;27.18;24.83;93023.47;5070187;28;20390;-47
2021/05/07 12:12:13;;;;;;;1.35;0.75;;;;;;;27.10;25.56;93026.06;5069760;28;20412;-47
2021/05/07 12:14:45;;;;;;;1.00;1.00;;;;;;;27.08;26.10;93026.00;5069251;28;20020;-50
2021/05/07 12:17:10;;;;;;;1.85;0.65;;;;;;;27.51;24.47;93020.78;5070055;28;20487;-48
2021/05/07 12:19:36;;;;;;;7.82;1.83;;;;;;;27.27;26.97;93022.97;5085986;28;20032;-48
2021/05/07 12:22:01;;;;;;;0.88;0.70;;;;;;;26.98;27.51;93018.69;5089367;28;20028;-52
2021/05/07 12:24:28;;;;;;;1.25;0.50;;;;;;;27.38;27.45;93021.13;5089719;28;20081;-48
2021/05/07 12:26:54;;;;;;;4.00;0.60;;;;;;;27.59;27.52;93023.81;5090146;28;20078;-48
2021/05/07 12:29:19;;;;;;;1.52;0.75;;;;;;;27.42;27.76;93010.63;5089353;28;20459;-48
2021/05/07 12:31:45;;;;;;;0.52;0.52;;;;;;;26.87;29.01;93002.84;5090036;28;20039;-46
2021/05/07 12:34:18;;;;;;;1.00;0.90;;;;;;;27.01;28.31;92996.78;5089765;28;20552;-51
2021/05/07 12:36:55;;;;;;;1.90;1.08;;;;;;;26.63;28.64;92993.66;5089533;28;20046;-49
2021/05/07 12:39:24;;;;;;;0.80;0.80;;;;;;;26.44;28.88;92988.88;5089876;28;20020;-51
2021/05/07 12:41:51;;;;;;;0.70;0.70;;;;;;;26.26;29.59;92994.03;5089653;28;20028;-49
2021/05/07 12:44:16;;;;;;;0.70;0.70;;;;;;;26.36;29.96;92999.97;5089612;28;20102;-50
2021/05/07 12:46:42;;;;;;;0.50;0.50;;;;;;;26.36;29.38;92990.75;5069809;28;20104;-45
2021/05/07 12:49:07;;;;;;;1.15;0.98;;;;;;;26.24;30.47;92979.81;5069389;28;20082;-47
2021/05/07 12:51:33;;;;;;;1.48;1.05;;;;;;;26.22;29.06;92969.16;5069429;28;20032;-46
2021/05/07 12:53:59;;;;;;;1.02;0.88;;;;;;;25.90;29.61;92973.84;5067949;28;20048;-46
2021/05/07 12:56:26;;;;;;;1.05;0.65;;;;;;;25.66;30.08;92972.41;5068338;28;20028;-46
2021/05/07 12:58:51;;;;;;;0.73;0.70;;;;;;;25.44;30.79;92967.50;5068601;28;20020;-47
2021/05/07 13:01:17;;;;;;;1.80;0.95;;;;;;;25.64;29.93;92964.59;5068762;28;20031;-47
2021/05/07 13:03:43;;;;;;;0.80;0.68;;;;;;;25.56;29.72;92964.31;5068513;28;20021;-50
2021/05/07 13:06:09;;;;;;;0.73;0.70;;;;;;;24.96;31.70;92942.59;5068440;28;20502;-50
2021/05/07 13:08:34;;;;;;;0.98;0.90;;;;;;;24.78;32.10;92957.56;5051071;28;20025;-48